TimeEST,TemperatureF,Dew PointF,Humidity,Sea Level PressureIn,VisibilityMPH,Wind Direction,Wind SpeedMPH,Gust SpeedMPH,PrecipitationIn,Events,Conditions,WindDirDegrees,DateUTC
12:10 AM,62.6,46.4,55,29.90,10.0,WNW,12.7,20.7,N/A,,Overcast,290,2012-12-21 05:10:00
12:53 AM,60.1,44.1,55,29.92,10.0,WNW,15.0,29.9,N/A,,Mostly Cloudy,300,2012-12-21 05:53:00
1:53 AM,55.9,39.9,55,29.95,10.0,WNW,18.4,27.6,N/A,,Clear,300,2012-12-21 06:53:00
2:53 AM,52.0,35.1,53,29.97,10.0,WNW,21.9,27.6,N/A,,Clear,300,2012-12-21 07:53:00
3:53 AM,50.0,32.0,50,29.99,10.0,WNW,15.0,25.3,N/A,,Clear,290,2012-12-21 08:53:00
4:53 AM,48.0,32.0,54,30.00,10.0,WNW,10.4,21.9,N/A,,Clear,290,2012-12-21 09:53:00
5:53 AM,46.9,32.0,56,30.02,10.0,WNW,12.7,-,N/A,,Clear,290,2012-12-21 10:53:00
7:53 AM,45.0,28.9,53,30.07,10.0,WNW,17.3,25.3,N/A,,Clear,290,2012-12-21 12:53:00
8:53 AM,46.0,27.0,47,30.09,10.0,West,15.0,31.1,N/A,,Clear,280,2012-12-21 13:53:00
9:53 AM,48.0,26.1,42,30.10,10.0,WNW,15.0,29.9,N/A,,Clear,290,2012-12-21 14:53:00
10:53 AM,50.0,25.0,38,30.09,10.0,WNW,16.1,31.1,N/A,,Clear,300,2012-12-21 15:53:00
11:53 AM,53.1,21.9,30,30.07,10.0,WNW,23.0,28.8,N/A,,Clear,290,2012-12-21 16:53:00
12:53 PM,54.0,17.1,23,30.04,10.0,West,19.6,29.9,N/A,,Clear,280,2012-12-21 17:53:00
1:53 PM,55.9,19.9,25,30.03,10.0,West,17.3,26.5,N/A,,Clear,270,2012-12-21 18:53:00
2:53 PM,55.9,18.0,23,30.03,10.0,West,16.1,26.5,N/A,,Clear,280,2012-12-21 19:53:00
3:53 PM,55.9,16.0,21,30.04,10.0,West,15.0,25.3,N/A,,Clear,280,2012-12-21 20:53:00
4:53 PM,54.0,17.1,23,30.05,10.0,WNW,17.3,24.2,N/A,,Clear,290,2012-12-21 21:53:00
5:53 PM,52.0,17.1,25,30.07,10.0,West,9.2,-,N/A,,Clear,280,2012-12-21 22:53:00
6:53 PM,51.1,18.0,27,30.11,10.0,West,10.4,-,N/A,,Clear,280,2012-12-21 23:53:00
7:53 PM,48.9,18.0,29,30.13,10.0,West,11.5,-,N/A,,Clear,280,2012-12-22 00:53:00
8:53 PM,48.0,19.0,32,30.14,10.0,WNW,11.5,18.4,N/A,,Clear,290,2012-12-22 01:53:00
9:53 PM,46.9,18.0,32,30.16,10.0,West,12.7,21.9,N/A,,Clear,280,2012-12-22 02:53:00
10:53 PM,46.9,17.1,30,30.17,10.0,WNW,11.5,-,N/A,,Clear,290,2012-12-22 03:53:00
11:53 PM,45.0,17.1,33,30.17,10.0,WNW,9.2,17.3,N/A,,Clear,290,2012-12-22 04:53:00